KSKA/SKA METAR and TAF weather

Enter ICAO airport designator
Station Type Date Time Source
KSKA METAR 2021/01/17 17:58 UTC NOAA

KSKA 171758Z 24008KT 2SM BR OVC002 00/00 A3024 RMK AO2A SLP266 60001 T00030003 10008 20002 50019 $


Station Type Date Time Source
KSKA Decoded METAR 2021/01/17 17:58 UTC NOAA

Fairchild Air Force Base, WA, United States (KSKA) 47-37N 117-39W
Jan 17, 2021 - 12:58 PM EST / 2021.01.17 1758 UTC
Wind: from the WSW (240 degrees) at 9 MPH (8 KT):0
Visibility: 2 mile(s):0
Sky conditions: overcast
Weather: mist
Temperature: 32.5 F (0.3 C)
Windchill: 24 F (-4 C):1
Dew Point: 32.5 F (0.3 C)
Relative Humidity: 100%
Pressure (altimeter): 30.24 in. Hg (1024 hPa)
Pressure tendency: 0.06 inches (1.9 hPa) higher than three hours ago
ob: KSKA 171758Z 24008KT 2SM BR OVC002 00/00 A3024 RMK AO2A SLP266 60001 T00030003 10008 20002 50019
cycle: 18

Station Type Date Time Source
KSKA TAF 2021/01/17 11:06 UTC NOAA

TAF KSKA 171100Z 1711/1817 19004KT 0800 FG VCSH VV002 620029 QNH3022INS
TEMPO 1711/1715 1600 -SNRA BR OVC002
BECMG 1715/1716 23006KT 4800 BR VCSH OVC003 620034 QNH3023INS
BECMG 1718/1719 25009KT 9999 NSW BKN005 BKN020 600053 QNH3025INS
BECMG 1722/1723 27006KT 9999 SCT005 SCT030 QNH3026INS
BECMG 1805/1807 VRB04KT 1600 BR BKN002 QNH3030INS TX03/1723Z TN00/1712Z

Example: see airport list